sensor_id;sensor_type;location;lat;lon;timestamp;P1;durP1;ratioP1;P2;durP2;ratioP2
73684;SDS011;61985;51.070;14.064;2023-05-02T00:01:39;11.63;;;7.53;;
73684;SDS011;61985;51.070;14.064;2023-05-02T00:04:05;13.15;;;7.57;;
73684;SDS011;61985;51.070;14.064;2023-05-02T00:06:30;12.82;;;7.05;;
73684;SDS011;61985;51.070;14.064;2023-05-02T00:08:56;11.80;;;7.13;;
73684;SDS011;61985;51.070;14.064;2023-05-02T00:11:21;11.45;;;7.57;;
73684;SDS011;61985;51.070;14.064;2023-05-02T00:13:47;12.27;;;7.40;;
73684;SDS011;61985;51.070;14.064;2023-05-02T00:16:13;13.80;;;7.75;;
73684;SDS011;61985;51.070;14.064;2023-05-02T00:18:38;12.48;;;7.68;;
73684;SDS011;61985;51.070;14.064;2023-05-02T00:21:04;10.30;;;7.43;;
73684;SDS011;61985;51.070;14.064;2023-05-02T00:23:30;13.57;;;7.32;;
73684;SDS011;61985;51.070;14.064;2023-05-02T00:25:55;10.35;;;6.68;;
73684;SDS011;61985;51.070;14.064;2023-05-02T00:28:21;11.90;;;7.13;;
73684;SDS011;61985;51.070;14.064;2023-05-02T00:30:46;11.00;;;7.25;;
73684;SDS011;61985;51.070;14.064;2023-05-02T00:33:12;11.35;;;7.28;;
73684;SDS011;61985;51.070;14.064;2023-05-02T00:35:39;10.88;;;6.97;;
73684;SDS011;61985;51.070;14.064;2023-05-02T00:38:04;12.55;;;6.68;;
73684;SDS011;61985;51.070;14.064;2023-05-02T00:40:41;10.40;;;7.13;;
73684;SDS011;61985;51.070;14.064;2023-05-02T00:43:07;10.60;;;6.78;;
73684;SDS011;61985;51.070;14.064;2023-05-02T00:45:33;12.65;;;6.97;;
73684;SDS011;61985;51.070;14.064;2023-05-02T00:47:58;12.95;;;7.10;;
73684;SDS011;61985;51.070;14.064;2023-05-02T00:50:25;11.02;;;6.90;;
73684;SDS011;61985;51.070;14.064;2023-05-02T00:52:51;13.07;;;7.57;;
73684;SDS011;61985;51.070;14.064;2023-05-02T00:55:19;10.52;;;6.97;;
73684;SDS011;61985;51.070;14.064;2023-05-02T00:57:44;10.00;;;6.55;;
73684;SDS011;61985;51.070;14.064;2023-05-02T01:00:10;14.80;;;7.05;;
73684;SDS011;61985;51.070;14.064;2023-05-02T01:05:16;13.18;;;7.20;;
73684;SDS011;61985;51.070;14.064;2023-05-02T01:13:21;10.98;;;6.93;;
73684;SDS011;61985;51.070;14.064;2023-05-02T01:15:50;13.15;;;7.90;;
73684;SDS011;61985;51.070;14.064;2023-05-02T01:18:21;10.23;;;6.95;;
73684;SDS011;61985;51.070;14.064;2023-05-02T01:20:51;10.18;;;6.85;;
73684;SDS011;61985;51.070;14.064;2023-05-02T01:23:24;9.85;;;6.15;;
73684;SDS011;61985;51.070;14.064;2023-05-02T01:31:21;11.55;;;7.10;;
73684;SDS011;61985;51.070;14.064;2023-05-02T01:33:49;12.68;;;7.82;;
73684;SDS011;61985;51.070;14.064;2023-05-02T01:36:16;14.00;;;8.70;;
73684;SDS011;61985;51.070;14.064;2023-05-02T01:38:41;10.38;;;6.85;;
73684;SDS011;61985;51.070;14.064;2023-05-02T01:41:09;12.48;;;7.13;;
73684;SDS011;61985;51.070;14.064;2023-05-02T01:43:37;11.48;;;7.30;;
73684;SDS011;61985;51.070;14.064;2023-05-02T01:46:05;13.00;;;7.60;;
73684;SDS011;61985;51.070;14.064;2023-05-02T01:48:33;11.38;;;7.40;;
73684;SDS011;61985;51.070;14.064;2023-05-02T01:51:00;15.80;;;7.55;;
73684;SDS011;61985;51.070;14.064;2023-05-02T01:53:27;11.70;;;6.68;;
73684;SDS011;61985;51.070;14.064;2023-05-02T01:55:55;10.93;;;7.00;;
73684;SDS011;61985;51.070;14.064;2023-05-02T01:58:23;12.50;;;7.88;;
73684;SDS011;61985;51.070;14.064;2023-05-02T02:00:52;12.80;;;7.53;;
73684;SDS011;61985;51.070;14.064;2023-05-02T02:03:18;10.63;;;7.07;;
73684;SDS011;61985;51.070;14.064;2023-05-02T02:05:44;10.32;;;7.00;;
73684;SDS011;61985;51.070;14.064;2023-05-02T02:08:13;10.45;;;6.30;;
73684;SDS011;61985;51.070;14.064;2023-05-02T02:10:39;13.63;;;6.50;;
73684;SDS011;61985;51.070;14.064;2023-05-02T02:13:12;12.82;;;6.88;;
73684;SDS011;61985;51.070;14.064;2023-05-02T02:15:42;11.32;;;6.63;;
73684;SDS011;61985;51.070;14.064;2023-05-02T02:18:13;10.00;;;6.75;;
73684;SDS011;61985;51.070;14.064;2023-05-02T02:20:44;11.43;;;7.28;;
73684;SDS011;61985;51.070;14.064;2023-05-02T02:23:11;12.60;;;7.90;;
73684;SDS011;61985;51.070;14.064;2023-05-02T02:25:38;9.88;;;6.95;;
73684;SDS011;61985;51.070;14.064;2023-05-02T02:28:05;12.02;;;7.18;;
73684;SDS011;61985;51.070;14.064;2023-05-02T02:30:31;11.90;;;7.25;;
73684;SDS011;61985;51.070;14.064;2023-05-02T02:32:57;12.65;;;7.65;;
73684;SDS011;61985;51.070;14.064;2023-05-02T02:35:22;10.20;;;6.80;;
73684;SDS011;61985;51.070;14.064;2023-05-02T02:37:57;10.25;;;6.88;;
73684;SDS011;61985;51.070;14.064;2023-05-02T02:40:39;13.63;;;7.72;;
73684;SDS011;61985;51.070;14.064;2023-05-02T02:43:19;10.68;;;7.18;;
73684;SDS011;61985;51.070;14.064;2023-05-02T02:48:31;13.50;;;7.27;;
73684;SDS011;61985;51.070;14.064;2023-05-02T02:56:40;11.45;;;7.82;;
73684;SDS011;61985;51.070;14.064;2023-05-02T02:59:18;12.68;;;7.65;;
73684;SDS011;61985;51.070;14.064;2023-05-02T03:01:52;13.73;;;7.22;;
73684;SDS011;61985;51.070;14.064;2023-05-02T03:04:33;11.30;;;7.53;;
73684;SDS011;61985;51.070;14.064;2023-05-02T03:07:02;12.13;;;7.60;;
73684;SDS011;61985;51.070;14.064;2023-05-02T03:09:38;11.23;;;7.65;;
73684;SDS011;61985;51.070;14.064;2023-05-02T03:12:08;12.50;;;7.55;;
73684;SDS011;61985;51.070;14.064;2023-05-02T03:14:35;12.70;;;7.35;;
73684;SDS011;61985;51.070;14.064;2023-05-02T03:17:02;14.55;;;7.28;;
73684;SDS011;61985;51.070;14.064;2023-05-02T03:19:28;9.98;;;6.65;;
73684;SDS011;61985;51.070;14.064;2023-05-02T03:21:53;11.00;;;7.30;;
73684;SDS011;61985;51.070;14.064;2023-05-02T03:24:18;11.65;;;7.18;;
73684;SDS011;61985;51.070;14.064;2023-05-02T03:26:44;10.07;;;7.10;;
73684;SDS011;61985;51.070;14.064;2023-05-02T03:29:11;9.95;;;6.93;;
73684;SDS011;61985;51.070;14.064;2023-05-02T03:31:37;9.65;;;6.47;;
73684;SDS011;61985;51.070;14.064;2023-05-02T03:34:02;10.43;;;6.97;;
73684;SDS011;61985;51.070;14.064;2023-05-02T03:36:29;10.63;;;7.00;;
73684;SDS011;61985;51.070;14.064;2023-05-02T03:38:54;11.13;;;6.70;;
73684;SDS011;61985;51.070;14.064;2023-05-02T03:41:20;11.23;;;7.50;;
73684;SDS011;61985;51.070;14.064;2023-05-02T03:43:45;10.63;;;7.22;;
73684;SDS011;61985;51.070;14.064;2023-05-02T03:46:11;13.38;;;7.70;;
73684;SDS011;61985;51.070;14.064;2023-05-02T03:48:36;13.98;;;7.43;;
73684;SDS011;61985;51.070;14.064;2023-05-02T03:51:04;11.75;;;7.80;;
73684;SDS011;61985;51.070;14.064;2023-05-02T03:53:31;11.60;;;7.40;;
73684;SDS011;61985;51.070;14.064;2023-05-02T03:55:56;13.68;;;8.40;;
73684;SDS011;61985;51.070;14.064;2023-05-02T03:58:22;10.23;;;7.03;;
73684;SDS011;61985;51.070;14.064;2023-05-02T04:00:49;11.13;;;7.63;;
73684;SDS011;61985;51.070;14.064;2023-05-02T04:03:14;11.30;;;7.82;;
73684;SDS011;61985;51.070;14.064;2023-05-02T04:05:40;10.95;;;7.70;;
73684;SDS011;61985;51.070;14.064;2023-05-02T04:08:07;12.43;;;8.07;;
73684;SDS011;61985;51.070;14.064;2023-05-02T04:10:35;12.15;;;7.75;;
73684;SDS011;61985;51.070;14.064;2023-05-02T04:13:00;15.32;;;7.97;;
73684;SDS011;61985;51.070;14.064;2023-05-02T04:15:27;16.23;;;8.52;;
73684;SDS011;61985;51.070;14.064;2023-05-02T04:17:52;13.02;;;8.40;;
73684;SDS011;61985;51.070;14.064;2023-05-02T04:20:18;17.45;;;8.80;;
73684;SDS011;61985;51.070;14.064;2023-05-02T04:22:43;12.90;;;8.27;;
73684;SDS011;61985;51.070;14.064;2023-05-02T04:25:11;12.32;;;7.50;;
73684;SDS011;61985;51.070;14.064;2023-05-02T04:27:37;10.25;;;6.80;;
73684;SDS011;61985;51.070;14.064;2023-05-02T04:30:02;12.40;;;7.00;;
73684;SDS011;61985;51.070;14.064;2023-05-02T04:32:30;12.68;;;7.03;;
73684;SDS011;61985;51.070;14.064;2023-05-02T04:34:55;13.07;;;6.75;;
73684;SDS011;61985;51.070;14.064;2023-05-02T04:37:20;12.80;;;6.75;;
73684;SDS011;61985;51.070;14.064;2023-05-02T04:39:46;10.63;;;6.80;;
73684;SDS011;61985;51.070;14.064;2023-05-02T04:42:11;11.93;;;7.38;;
73684;SDS011;61985;51.070;14.064;2023-05-02T04:44:36;10.25;;;6.97;;
73684;SDS011;61985;51.070;14.064;2023-05-02T04:47:02;12.13;;;7.18;;
73684;SDS011;61985;51.070;14.064;2023-05-02T04:49:28;11.15;;;7.22;;
73684;SDS011;61985;51.070;14.064;2023-05-02T04:51:54;12.63;;;7.20;;
73684;SDS011;61985;51.070;14.064;2023-05-02T04:54:19;11.18;;;6.55;;
73684;SDS011;61985;51.070;14.064;2023-05-02T04:56:45;11.30;;;6.65;;
73684;SDS011;61985;51.070;14.064;2023-05-02T04:59:10;11.98;;;6.10;;
73684;SDS011;61985;51.070;14.064;2023-05-02T05:01:36;14.48;;;6.80;;
73684;SDS011;61985;51.070;14.064;2023-05-02T05:04:01;11.32;;;6.68;;
73684;SDS011;61985;51.070;14.064;2023-05-02T05:06:27;10.43;;;6.63;;
73684;SDS011;61985;51.070;14.064;2023-05-02T05:09:00;10.90;;;6.90;;
73684;SDS011;61985;51.070;14.064;2023-05-02T05:11:28;10.75;;;6.10;;
73684;SDS011;61985;51.070;14.064;2023-05-02T05:13:54;12.27;;;6.55;;
73684;SDS011;61985;51.070;14.064;2023-05-02T05:16:22;10.10;;;6.53;;
73684;SDS011;61985;51.070;14.064;2023-05-02T05:18:47;10.77;;;6.78;;
73684;SDS011;61985;51.070;14.064;2023-05-02T05:21:13;12.45;;;6.32;;
73684;SDS011;61985;51.070;14.064;2023-05-02T05:23:38;11.85;;;6.53;;
73684;SDS011;61985;51.070;14.064;2023-05-02T05:26:10;9.43;;;6.30;;
73684;SDS011;61985;51.070;14.064;2023-05-02T05:28:36;8.93;;;5.60;;
73684;SDS011;61985;51.070;14.064;2023-05-02T05:31:08;11.20;;;6.30;;
73684;SDS011;61985;51.070;14.064;2023-05-02T05:33:35;11.55;;;6.30;;
73684;SDS011;61985;51.070;14.064;2023-05-02T05:36:06;11.25;;;6.28;;
73684;SDS011;61985;51.070;14.064;2023-05-02T05:38:35;17.65;;;6.82;;
73684;SDS011;61985;51.070;14.064;2023-05-02T05:41:01;10.55;;;6.32;;
73684;SDS011;61985;51.070;14.064;2023-05-02T05:43:27;10.95;;;6.35;;
73684;SDS011;61985;51.070;14.064;2023-05-02T05:45:53;10.68;;;6.07;;
73684;SDS011;61985;51.070;14.064;2023-05-02T05:48:19;12.93;;;6.10;;
73684;SDS011;61985;51.070;14.064;2023-05-02T05:50:45;9.93;;;6.10;;
73684;SDS011;61985;51.070;14.064;2023-05-02T05:55:46;9.85;;;5.93;;
73684;SDS011;61985;51.070;14.064;2023-05-02T06:03:36;8.50;;;5.85;;
73684;SDS011;61985;51.070;14.064;2023-05-02T06:06:01;14.20;;;5.82;;
73684;SDS011;61985;51.070;14.064;2023-05-02T06:08:29;9.82;;;5.90;;
73684;SDS011;61985;51.070;14.064;2023-05-02T06:10:54;10.85;;;5.88;;
73684;SDS011;61985;51.070;14.064;2023-05-02T06:13:45;18.27;;;8.80;;
73684;SDS011;61985;51.070;14.064;2023-05-02T06:16:09;13.38;;;6.35;;
73684;SDS011;61985;51.070;14.064;2023-05-02T06:18:35;9.38;;;5.88;;
73684;SDS011;61985;51.070;14.064;2023-05-02T06:21:04;9.38;;;5.40;;
73684;SDS011;61985;51.070;14.064;2023-05-02T06:23:30;11.02;;;5.70;;
73684;SDS011;61985;51.070;14.064;2023-05-02T06:26:00;12.40;;;5.50;;
73684;SDS011;61985;51.070;14.064;2023-05-02T06:28:46;9.10;;;5.25;;
73684;SDS011;61985;51.070;14.064;2023-05-02T06:31:11;9.65;;;5.50;;
73684;SDS011;61985;51.070;14.064;2023-05-02T06:33:37;9.48;;;5.60;;
73684;SDS011;61985;51.070;14.064;2023-05-02T06:36:02;8.38;;;4.75;;
73684;SDS011;61985;51.070;14.064;2023-05-02T06:38:28;9.85;;;5.40;;
73684;SDS011;61985;51.070;14.064;2023-05-02T06:40:54;7.85;;;4.97;;
73684;SDS011;61985;51.070;14.064;2023-05-02T06:43:22;9.73;;;4.82;;
73684;SDS011;61985;51.070;14.064;2023-05-02T06:45:47;9.98;;;5.22;;
73684;SDS011;61985;51.070;14.064;2023-05-02T06:48:20;9.07;;;4.53;;
73684;SDS011;61985;51.070;14.064;2023-05-02T06:50:50;8.00;;;4.63;;
73684;SDS011;61985;51.070;14.064;2023-05-02T06:53:16;10.57;;;4.88;;
73684;SDS011;61985;51.070;14.064;2023-05-02T06:55:44;9.70;;;4.50;;
73684;SDS011;61985;51.070;14.064;2023-05-02T06:58:10;7.57;;;4.35;;
73684;SDS011;61985;51.070;14.064;2023-05-02T07:00:36;8.38;;;5.03;;
73684;SDS011;61985;51.070;14.064;2023-05-02T07:03:01;8.35;;;4.13;;
73684;SDS011;61985;51.070;14.064;2023-05-02T07:05:27;11.10;;;4.43;;
73684;SDS011;61985;51.070;14.064;2023-05-02T07:08:14;9.25;;;4.15;;
73684;SDS011;61985;51.070;14.064;2023-05-02T07:10:42;7.95;;;4.22;;
73684;SDS011;61985;51.070;14.064;2023-05-02T07:13:08;10.95;;;4.28;;
73684;SDS011;61985;51.070;14.064;2023-05-02T07:15:34;8.82;;;4.72;;
73684;SDS011;61985;51.070;14.064;2023-05-02T07:18:00;8.85;;;4.40;;
73684;SDS011;61985;51.070;14.064;2023-05-02T07:20:28;8.80;;;4.85;;
73684;SDS011;61985;51.070;14.064;2023-05-02T07:23:06;10.00;;;4.78;;
73684;SDS011;61985;51.070;14.064;2023-05-02T07:25:33;9.60;;;5.05;;
73684;SDS011;61985;51.070;14.064;2023-05-02T07:27:59;7.78;;;4.25;;
73684;SDS011;61985;51.070;14.064;2023-05-02T07:30:25;8.75;;;4.78;;
73684;SDS011;61985;51.070;14.064;2023-05-02T07:32:51;9.82;;;4.82;;
73684;SDS011;61985;51.070;14.064;2023-05-02T07:35:17;8.27;;;4.65;;
73684;SDS011;61985;51.070;14.064;2023-05-02T07:37:42;11.38;;;5.32;;
73684;SDS011;61985;51.070;14.064;2023-05-02T07:45:18;10.55;;;4.97;;
73684;SDS011;61985;51.070;14.064;2023-05-02T07:47:44;6.70;;;3.95;;
73684;SDS011;61985;51.070;14.064;2023-05-02T07:50:11;6.50;;;3.63;;
73684;SDS011;61985;51.070;14.064;2023-05-02T07:52:36;7.85;;;3.78;;
73684;SDS011;61985;51.070;14.064;2023-05-02T07:55:02;10.60;;;4.18;;
73684;SDS011;61985;51.070;14.064;2023-05-02T07:57:27;8.20;;;4.45;;
73684;SDS011;61985;51.070;14.064;2023-05-02T07:59:53;6.78;;;3.60;;
73684;SDS011;61985;51.070;14.064;2023-05-02T08:02:21;6.88;;;3.70;;
73684;SDS011;61985;51.070;14.064;2023-05-02T08:04:48;7.80;;;4.15;;
73684;SDS011;61985;51.070;14.064;2023-05-02T08:07:13;10.48;;;4.47;;
73684;SDS011;61985;51.070;14.064;2023-05-02T08:09:39;7.45;;;3.90;;
73684;SDS011;61985;51.070;14.064;2023-05-02T08:12:04;7.45;;;3.88;;
73684;SDS011;61985;51.070;14.064;2023-05-02T08:14:30;8.20;;;4.07;;
73684;SDS011;61985;51.070;14.064;2023-05-02T08:16:56;9.55;;;4.32;;
73684;SDS011;61985;51.070;14.064;2023-05-02T08:19:22;7.78;;;4.07;;
73684;SDS011;61985;51.070;14.064;2023-05-02T08:21:48;8.82;;;3.92;;
73684;SDS011;61985;51.070;14.064;2023-05-02T08:24:13;6.40;;;3.88;;
73684;SDS011;61985;51.070;14.064;2023-05-02T08:26:38;9.63;;;4.00;;
73684;SDS011;61985;51.070;14.064;2023-05-02T08:29:04;5.95;;;3.50;;
73684;SDS011;61985;51.070;14.064;2023-05-02T08:31:29;7.50;;;4.32;;
73684;SDS011;61985;51.070;14.064;2023-05-02T08:33:55;8.77;;;4.10;;
73684;SDS011;61985;51.070;14.064;2023-05-02T08:36:20;7.18;;;4.03;;
73684;SDS011;61985;51.070;14.064;2023-05-02T08:38:46;6.30;;;3.90;;
73684;SDS011;61985;51.070;14.064;2023-05-02T08:41:16;9.00;;;4.25;;
73684;SDS011;61985;51.070;14.064;2023-05-02T08:43:43;6.38;;;3.95;;
73684;SDS011;61985;51.070;14.064;2023-05-02T08:46:10;6.80;;;4.00;;
73684;SDS011;61985;51.070;14.064;2023-05-02T08:48:37;6.80;;;4.03;;
73684;SDS011;61985;51.070;14.064;2023-05-02T08:51:07;10.38;;;4.43;;
73684;SDS011;61985;51.070;14.064;2023-05-02T08:53:35;9.15;;;4.68;;
73684;SDS011;61985;51.070;14.064;2023-05-02T08:56:01;10.05;;;4.78;;
73684;SDS011;61985;51.070;14.064;2023-05-02T08:58:27;9.13;;;4.93;;
73684;SDS011;61985;51.070;14.064;2023-05-02T09:00:54;9.02;;;5.22;;
73684;SDS011;61985;51.070;14.064;2023-05-02T09:03:31;10.77;;;5.13;;
73684;SDS011;61985;51.070;14.064;2023-05-02T09:06:03;11.80;;;4.40;;
73684;SDS011;61985;51.070;14.064;2023-05-02T09:08:29;10.02;;;4.65;;
73684;SDS011;61985;51.070;14.064;2023-05-02T09:10:54;6.57;;;3.92;;
73684;SDS011;61985;51.070;14.064;2023-05-02T09:16:00;8.07;;;4.30;;
73684;SDS011;61985;51.070;14.064;2023-05-02T09:18:28;9.05;;;4.88;;
73684;SDS011;61985;51.070;14.064;2023-05-02T09:26:59;7.25;;;4.90;;
73684;SDS011;61985;51.070;14.064;2023-05-02T09:29:44;9.52;;;4.38;;
73684;SDS011;61985;51.070;14.064;2023-05-02T09:32:11;9.57;;;4.10;;
73684;SDS011;61985;51.070;14.064;2023-05-02T09:34:36;10.50;;;4.53;;
73684;SDS011;61985;51.070;14.064;2023-05-02T09:37:03;8.20;;;3.92;;
73684;SDS011;61985;51.070;14.064;2023-05-02T09:39:29;7.50;;;3.88;;
73684;SDS011;61985;51.070;14.064;2023-05-02T09:41:55;8.93;;;3.78;;
73684;SDS011;61985;51.070;14.064;2023-05-02T09:44:22;9.02;;;3.97;;
73684;SDS011;61985;51.070;14.064;2023-05-02T09:46:56;8.98;;;5.35;;
73684;SDS011;61985;51.070;14.064;2023-05-02T09:49:42;7.38;;;3.90;;
73684;SDS011;61985;51.070;14.064;2023-05-02T09:52:16;7.68;;;3.75;;
73684;SDS011;61985;51.070;14.064;2023-05-02T09:54:43;6.68;;;3.85;;
73684;SDS011;61985;51.070;14.064;2023-05-02T09:57:10;9.60;;;4.28;;
73684;SDS011;61985;51.070;14.064;2023-05-02T09:59:37;8.35;;;4.53;;
73684;SDS011;61985;51.070;14.064;2023-05-02T10:02:04;6.97;;;4.03;;
73684;SDS011;61985;51.070;14.064;2023-05-02T10:07:06;13.27;;;5.60;;
73684;SDS011;61985;51.070;14.064;2023-05-02T10:09:34;10.18;;;5.72;;
73684;SDS011;61985;51.070;14.064;2023-05-02T10:12:01;12.32;;;7.03;;
73684;SDS011;61985;51.070;14.064;2023-05-02T10:14:34;14.73;;;6.50;;
73684;SDS011;61985;51.070;14.064;2023-05-02T10:17:04;11.15;;;5.93;;
73684;SDS011;61985;51.070;14.064;2023-05-02T10:22:08;11.15;;;6.20;;
73684;SDS011;61985;51.070;14.064;2023-05-02T10:24:36;13.68;;;7.35;;
73684;SDS011;61985;51.070;14.064;2023-05-02T10:27:03;11.80;;;7.40;;
73684;SDS011;61985;51.070;14.064;2023-05-02T10:29:29;13.20;;;7.45;;
73684;SDS011;61985;51.070;14.064;2023-05-02T10:31:56;12.32;;;7.10;;
73684;SDS011;61985;51.070;14.064;2023-05-02T10:34:22;11.60;;;7.20;;
73684;SDS011;61985;51.070;14.064;2023-05-02T10:36:48;13.35;;;7.53;;
73684;SDS011;61985;51.070;14.064;2023-05-02T10:39:13;13.10;;;7.43;;
73684;SDS011;61985;51.070;14.064;2023-05-02T10:41:39;11.68;;;6.45;;
73684;SDS011;61985;51.070;14.064;2023-05-02T10:44:05;13.30;;;7.10;;
73684;SDS011;61985;51.070;14.064;2023-05-02T10:46:33;12.65;;;6.78;;
73684;SDS011;61985;51.070;14.064;2023-05-02T10:49:10;11.82;;;7.40;;
73684;SDS011;61985;51.070;14.064;2023-05-02T10:51:38;12.00;;;7.25;;
73684;SDS011;61985;51.070;14.064;2023-05-02T10:54:23;14.77;;;7.05;;
73684;SDS011;61985;51.070;14.064;2023-05-02T10:59:31;12.55;;;7.30;;
73684;SDS011;61985;51.070;14.064;2023-05-02T11:01:58;12.32;;;6.47;;
73684;SDS011;61985;51.070;14.064;2023-05-02T11:04:23;10.77;;;6.65;;
73684;SDS011;61985;51.070;14.064;2023-05-02T11:11:46;10.13;;;6.18;;
73684;SDS011;61985;51.070;14.064;2023-05-02T11:14:46;9.55;;;6.07;;
73684;SDS011;61985;51.070;14.064;2023-05-02T11:17:08;10.63;;;7.10;;
73684;SDS011;61985;51.070;14.064;2023-05-02T11:24:44;12.38;;;6.85;;
73684;SDS011;61985;51.070;14.064;2023-05-02T11:27:46;12.73;;;7.45;;
73684;SDS011;61985;51.070;14.064;2023-05-02T11:30:07;19.08;;;7.18;;
73684;SDS011;61985;51.070;14.064;2023-05-02T11:35:15;15.23;;;6.78;;
73684;SDS011;61985;51.070;14.064;2023-05-02T11:37:42;14.82;;;7.10;;
73684;SDS011;61985;51.070;14.064;2023-05-02T11:40:17;30.45;;;10.10;;
73684;SDS011;61985;51.070;14.064;2023-05-02T11:42:43;22.60;;;7.85;;
73684;SDS011;61985;51.070;14.064;2023-05-02T11:45:08;14.23;;;7.68;;
73684;SDS011;61985;51.070;14.064;2023-05-02T11:47:34;17.38;;;7.93;;
73684;SDS011;61985;51.070;14.064;2023-05-02T11:50:02;17.33;;;8.60;;
73684;SDS011;61985;51.070;14.064;2023-05-02T11:52:28;15.45;;;8.73;;
73684;SDS011;61985;51.070;14.064;2023-05-02T11:54:54;15.95;;;8.23;;
73684;SDS011;61985;51.070;14.064;2023-05-02T11:57:21;16.45;;;9.18;;
73684;SDS011;61985;51.070;14.064;2023-05-02T11:59:51;13.68;;;8.40;;
73684;SDS011;61985;51.070;14.064;2023-05-02T12:02:17;14.20;;;8.27;;
73684;SDS011;61985;51.070;14.064;2023-05-02T12:04:44;13.38;;;8.65;;
73684;SDS011;61985;51.070;14.064;2023-05-02T12:07:09;14.82;;;9.13;;
73684;SDS011;61985;51.070;14.064;2023-05-02T12:09:35;24.20;;;8.23;;
73684;SDS011;61985;51.070;14.064;2023-05-02T12:12:00;18.52;;;8.77;;
73684;SDS011;61985;51.070;14.064;2023-05-02T12:14:30;16.98;;;8.13;;
73684;SDS011;61985;51.070;14.064;2023-05-02T12:16:57;13.90;;;7.50;;
73684;SDS011;61985;51.070;14.064;2023-05-02T12:19:23;29.77;;;8.30;;
73684;SDS011;61985;51.070;14.064;2023-05-02T12:21:49;72.18;;;11.30;;
73684;SDS011;61985;51.070;14.064;2023-05-02T12:24:15;12.38;;;7.22;;
73684;SDS011;61985;51.070;14.064;2023-05-02T12:26:40;39.67;;;8.98;;
73684;SDS011;61985;51.070;14.064;2023-05-02T12:29:06;16.70;;;8.57;;
73684;SDS011;61985;51.070;14.064;2023-05-02T12:31:32;12.02;;;7.82;;
73684;SDS011;61985;51.070;14.064;2023-05-02T12:33:59;21.88;;;7.40;;
73684;SDS011;61985;51.070;14.064;2023-05-02T12:36:25;14.73;;;8.02;;
73684;SDS011;61985;51.070;14.064;2023-05-02T12:38:54;18.23;;;7.00;;
73684;SDS011;61985;51.070;14.064;2023-05-02T12:41:36;14.85;;;7.68;;
73684;SDS011;61985;51.070;14.064;2023-05-02T12:44:04;12.63;;;6.97;;
73684;SDS011;61985;51.070;14.064;2023-05-02T12:46:30;12.70;;;7.22;;
73684;SDS011;61985;51.070;14.064;2023-05-02T12:49:08;15.98;;;7.68;;
73684;SDS011;61985;51.070;14.064;2023-05-02T12:51:36;18.92;;;7.47;;
73684;SDS011;61985;51.070;14.064;2023-05-02T12:54:02;25.13;;;8.50;;
73684;SDS011;61985;51.070;14.064;2023-05-02T12:56:28;13.60;;;6.63;;
73684;SDS011;61985;51.070;14.064;2023-05-02T12:58:56;28.20;;;6.65;;
73684;SDS011;61985;51.070;14.064;2023-05-02T13:01:25;13.27;;;6.07;;
73684;SDS011;61985;51.070;14.064;2023-05-02T13:03:51;10.00;;;4.90;;
73684;SDS011;61985;51.070;14.064;2023-05-02T13:06:16;13.02;;;6.22;;
73684;SDS011;61985;51.070;14.064;2023-05-02T13:08:42;9.27;;;5.63;;
73684;SDS011;61985;51.070;14.064;2023-05-02T13:11:07;10.57;;;6.25;;
73684;SDS011;61985;51.070;14.064;2023-05-02T13:13:33;11.55;;;6.05;;
73684;SDS011;61985;51.070;14.064;2023-05-02T13:15:59;10.82;;;6.05;;
73684;SDS011;61985;51.070;14.064;2023-05-02T13:18:24;10.38;;;6.07;;
73684;SDS011;61985;51.070;14.064;2023-05-02T13:20:51;11.05;;;6.60;;
73684;SDS011;61985;51.070;14.064;2023-05-02T13:23:17;18.50;;;7.22;;
73684;SDS011;61985;51.070;14.064;2023-05-02T13:25:42;19.10;;;7.30;;
73684;SDS011;61985;51.070;14.064;2023-05-02T13:28:08;14.43;;;6.38;;
73684;SDS011;61985;51.070;14.064;2023-05-02T13:30:33;10.85;;;6.40;;
73684;SDS011;61985;51.070;14.064;2023-05-02T13:32:58;9.32;;;5.60;;
73684;SDS011;61985;51.070;14.064;2023-05-02T13:35:25;11.23;;;5.82;;
73684;SDS011;61985;51.070;14.064;2023-05-02T13:37:50;10.05;;;6.18;;
73684;SDS011;61985;51.070;14.064;2023-05-02T13:40:16;10.02;;;6.13;;
73684;SDS011;61985;51.070;14.064;2023-05-02T13:42:41;11.50;;;6.80;;
73684;SDS011;61985;51.070;14.064;2023-05-02T13:45:07;8.45;;;5.50;;
73684;SDS011;61985;51.070;14.064;2023-05-02T13:47:32;9.50;;;5.97;;
73684;SDS011;61985;51.070;14.064;2023-05-02T13:49:58;8.60;;;5.70;;
73684;SDS011;61985;51.070;14.064;2023-05-02T13:52:23;9.13;;;5.30;;
73684;SDS011;61985;51.070;14.064;2023-05-02T13:54:48;10.30;;;6.15;;
73684;SDS011;61985;51.070;14.064;2023-05-02T13:57:14;10.68;;;6.82;;
73684;SDS011;61985;51.070;14.064;2023-05-02T13:59:39;13.75;;;5.50;;
73684;SDS011;61985;51.070;14.064;2023-05-02T14:02:06;11.98;;;5.35;;
73684;SDS011;61985;51.070;14.064;2023-05-02T14:04:31;10.23;;;5.45;;
73684;SDS011;61985;51.070;14.064;2023-05-02T14:06:57;9.98;;;6.13;;
73684;SDS011;61985;51.070;14.064;2023-05-02T14:09:22;9.23;;;5.35;;
73684;SDS011;61985;51.070;14.064;2023-05-02T14:11:48;8.23;;;5.63;;
73684;SDS011;61985;51.070;14.064;2023-05-02T14:14:13;9.73;;;5.90;;
73684;SDS011;61985;51.070;14.064;2023-05-02T14:16:39;28.70;;;12.27;;
73684;SDS011;61985;51.070;14.064;2023-05-02T14:19:04;9.50;;;6.20;;
73684;SDS011;61985;51.070;14.064;2023-05-02T14:21:30;8.80;;;5.32;;
73684;SDS011;61985;51.070;14.064;2023-05-02T14:23:55;11.52;;;8.20;;
73684;SDS011;61985;51.070;14.064;2023-05-02T14:26:21;10.18;;;5.88;;
73684;SDS011;61985;51.070;14.064;2023-05-02T14:28:46;14.57;;;7.20;;
73684;SDS011;61985;51.070;14.064;2023-05-02T14:31:12;10.00;;;6.40;;
73684;SDS011;61985;51.070;14.064;2023-05-02T14:33:38;12.23;;;6.95;;
73684;SDS011;61985;51.070;14.064;2023-05-02T14:36:03;10.80;;;6.93;;
73684;SDS011;61985;51.070;14.064;2023-05-02T14:38:31;10.25;;;6.50;;
73684;SDS011;61985;51.070;14.064;2023-05-02T14:40:56;12.55;;;6.80;;
73684;SDS011;61985;51.070;14.064;2023-05-02T14:43:22;12.68;;;7.28;;
73684;SDS011;61985;51.070;14.064;2023-05-02T14:45:48;11.20;;;6.60;;
73684;SDS011;61985;51.070;14.064;2023-05-02T14:48:14;12.82;;;6.78;;
73684;SDS011;61985;51.070;14.064;2023-05-02T14:50:41;12.40;;;7.57;;
73684;SDS011;61985;51.070;14.064;2023-05-02T14:53:07;14.30;;;7.32;;
73684;SDS011;61985;51.070;14.064;2023-05-02T14:55:36;10.70;;;6.93;;
73684;SDS011;61985;51.070;14.064;2023-05-02T14:58:02;11.90;;;7.50;;
73684;SDS011;61985;51.070;14.064;2023-05-02T15:00:28;12.05;;;7.28;;
73684;SDS011;61985;51.070;14.064;2023-05-02T15:02:54;11.90;;;6.47;;
73684;SDS011;61985;51.070;14.064;2023-05-02T15:05:19;11.73;;;7.20;;
73684;SDS011;61985;51.070;14.064;2023-05-02T15:07:45;13.27;;;7.60;;
73684;SDS011;61985;51.070;14.064;2023-05-02T15:10:13;13.88;;;7.88;;
73684;SDS011;61985;51.070;14.064;2023-05-02T15:12:40;12.57;;;7.00;;
73684;SDS011;61985;51.070;14.064;2023-05-02T15:15:07;12.88;;;6.95;;
73684;SDS011;61985;51.070;14.064;2023-05-02T15:17:35;13.52;;;7.10;;
73684;SDS011;61985;51.070;14.064;2023-05-02T15:20:06;11.35;;;6.93;;
73684;SDS011;61985;51.070;14.064;2023-05-02T15:22:33;12.80;;;7.38;;
73684;SDS011;61985;51.070;14.064;2023-05-02T15:25:01;12.13;;;6.43;;
73684;SDS011;61985;51.070;14.064;2023-05-02T15:27:26;10.45;;;5.55;;
73684;SDS011;61985;51.070;14.064;2023-05-02T15:29:52;11.82;;;5.80;;
73684;SDS011;61985;51.070;14.064;2023-05-02T15:32:17;9.93;;;4.68;;